Time;durP1;ratioP1;P1;durP2;ratioP2;P2;SDS_P1;SDS_P2;PMS_P1;PMS_P2;Temp;Humidity;BMP_temperature;BMP_pressure;BME280_temperature;BME280_humidity;BME280_pressure;Samples;Min_cycle;Max_cycle;Signal;HPM_P1;HPM_P2
2022/03/13 00:00:35;;;;;;;22.73;15.38;;;6.40;99.90;;;;;;4974176;28;20717;-74
2022/03/13 00:03:03;;;;;;;20.13;15.07;;;6.40;99.90;;;;;;4958109;28;20464;-76
2022/03/13 00:05:29;;;;;;;25.48;15.85;;;6.60;99.90;;;;;;4957951;28;20086;-75
2022/03/13 00:07:56;;;;;;;25.75;15.88;;;6.40;99.90;;;;;;4957644;28;20058;-76
2022/03/13 00:10:27;;;;;;;24.65;15.70;;;6.40;99.90;;;;;;4957659;28;20066;-75
2022/03/13 00:12:54;;;;;;;22.00;15.10;;;6.40;99.90;;;;;;4963383;28;20043;-75
2022/03/13 00:15:32;;;;;;;23.92;16.00;;;6.40;99.90;;;;;;5036803;28;20045;-76
2022/03/13 00:17:59;;;;;;;25.55;15.57;;;6.40;99.90;;;;;;5019623;28;20049;-76
2022/03/13 00:20:27;;;;;;;21.45;15.98;;;6.30;99.90;;;;;;5036787;28;20060;-75
2022/03/13 00:22:57;;;;;;;22.98;15.90;;;6.30;99.90;;;;;;5037054;28;20060;-74
2022/03/13 00:25:25;;;;;;;22.80;16.33;;;6.40;99.90;;;;;;5020374;28;20135;-74
2022/03/13 00:27:52;;;;;;;22.73;16.48;;;6.60;99.90;;;;;;5035805;28;20056;-76
2022/03/13 00:30:17;;;;;;;24.00;16.40;;;6.40;99.90;;;;;;5020851;28;20412;-76
2022/03/13 00:32:43;;;;;;;25.92;16.50;;;6.40;99.90;;;;;;5036651;28;20118;-76
2022/03/13 00:35:10;;;;;;;23.67;15.95;;;6.30;99.90;;;;;;5032569;28;20423;-76
2022/03/13 00:37:36;;;;;;;22.00;15.85;;;6.30;99.90;;;;;;5036836;28;20048;-77
2022/03/13 00:40:02;;;;;;;21.73;15.55;;;6.30;99.90;;;;;;5054090;28;20301;-75
2022/03/13 00:42:28;;;;;;;24.00;16.83;;;6.30;99.90;;;;;;5036620;28;20110;-75
2022/03/13 00:44:54;;;;;;;23.02;15.57;;;6.30;99.90;;;;;;5037289;28;20449;-74
2022/03/13 00:47:20;;;;;;;24.40;16.52;;;6.40;99.90;;;;;;5036738;28;20124;-76
2022/03/13 00:49:47;;;;;;;22.55;16.15;;;6.40;99.90;;;;;;5022245;28;20055;-75
2022/03/13 00:52:13;;;;;;;21.58;15.50;;;6.40;99.90;;;;;;5039989;28;20053;-75
2022/03/13 00:54:39;;;;;;;24.58;16.05;;;6.50;99.90;;;;;;5040169;28;20090;-75
2022/03/13 00:57:05;;;;;;;22.15;15.88;;;6.50;99.90;;;;;;5039251;28;20056;-75
2022/03/13 00:59:31;;;;;;;22.55;16.15;;;6.50;99.90;;;;;;5040608;28;20048;-75
2022/03/13 01:01:56;;;;;;;26.95;17.15;;;6.60;99.90;;;;;;5040350;28;20056;-74
2022/03/13 01:04:22;;;;;;;25.33;16.08;;;6.50;99.90;;;;;;5040045;28;20453;-75
2022/03/13 01:06:48;;;;;;;30.23;17.05;;;6.40;99.90;;;;;;5056910;28;20120;-75
2022/03/13 01:09:13;;;;;;;24.77;17.10;;;6.50;99.90;;;;;;5023114;28;20111;-75
2022/03/13 01:11:39;;;;;;;23.38;17.10;;;6.50;99.90;;;;;;5039559;28;20048;-75
2022/03/13 01:14:05;;;;;;;24.38;16.42;;;6.50;99.90;;;;;;5057513;28;20051;-75
2022/03/13 01:16:37;;;;;;;23.40;16.98;;;6.50;99.90;;;;;;5023209;28;20098;-74
2022/03/13 01:19:03;;;;;;;23.77;16.25;;;6.50;99.90;;;;;;5022960;28;20049;-75
2022/03/13 01:21:31;;;;;;;21.23;15.43;;;6.60;99.90;;;;;;5022448;28;20100;-75
2022/03/13 01:23:59;;;;;;;23.13;15.82;;;6.60;99.90;;;;;;5040330;28;20045;-75
2022/03/13 01:26:25;;;;;;;30.42;16.80;;;6.60;99.90;;;;;;5038732;28;20496;-76
2022/03/13 01:28:57;;;;;;;22.13;16.38;;;6.70;99.90;;;;;;5056373;28;20065;-75
2022/03/13 01:31:28;;;;;;;23.42;16.73;;;6.70;99.90;;;;;;5039809;28;20441;-74
2022/03/13 01:33:55;;;;;;;26.40;16.75;;;6.80;99.90;;;;;;5056848;28;20037;-75
2022/03/13 01:36:21;;;;;;;22.10;16.33;;;6.80;99.90;;;;;;5022301;28;20049;-75
2022/03/13 01:38:47;;;;;;;21.95;16.20;;;6.80;99.90;;;;;;5039561;28;20385;-74
2022/03/13 01:41:12;;;;;;;23.52;16.05;;;6.80;99.90;;;;;;5039135;28;20063;-75
2022/03/13 01:43:38;;;;;;;23.83;16.77;;;6.80;99.90;;;;;;5039117;28;20045;-77
2022/03/13 01:46:04;;;;;;;23.98;16.48;;;6.80;99.90;;;;;;5022598;28;20052;-75
2022/03/13 01:48:39;;;;;;;24.75;17.45;;;6.80;99.90;;;;;;5038713;28;20041;-75
2022/03/13 01:51:05;;;;;;;22.30;15.55;;;6.80;99.90;;;;;;5039232;28;20044;-75
2022/03/13 01:53:32;;;;;;;23.13;16.77;;;6.80;99.90;;;;;;5038457;28;20048;-76
2022/03/13 01:55:58;;;;;;;23.65;16.58;;;6.90;99.90;;;;;;5055816;28;20060;-74
2022/03/13 01:58:24;;;;;;;24.58;17.35;;;6.80;99.90;;;;;;5056427;28;20056;-77
2022/03/13 02:00:50;;;;;;;25.98;16.77;;;6.70;99.90;;;;;;5021317;28;20182;-77
2022/03/13 02:03:16;;;;;;;24.73;16.75;;;6.70;99.90;;;;;;5038667;28;20080;-75
2022/03/13 02:05:45;;;;;;;25.40;16.45;;;6.70;99.90;;;;;;5037932;28;20075;-78
2022/03/13 02:08:22;;;;;;;23.15;16.70;;;6.80;99.90;;;;;;5021777;28;20051;-75
2022/03/13 02:10:48;;;;;;;24.17;16.63;;;6.80;99.90;;;;;;5022216;28;20048;-74
2022/03/13 02:13:18;;;;;;;23.08;16.55;;;6.80;99.90;;;;;;5038656;28;20069;-76
2022/03/13 02:15:44;;;;;;;25.00;17.27;;;6.80;99.90;;;;;;5022006;28;20053;-75
2022/03/13 02:18:10;;;;;;;24.58;16.48;;;6.80;99.90;;;;;;5038272;28;20454;-75
2022/03/13 02:20:42;;;;;;;22.27;15.98;;;6.80;99.90;;;;;;5055753;28;20057;-75
2022/03/13 02:23:22;;;;;;;23.08;15.98;;;6.80;99.90;;;;;;5038630;28;20048;-75
2022/03/13 02:25:56;;;;;;;28.75;17.10;;;6.80;99.90;;;;;;5038261;28;20508;-77
2022/03/13 02:28:27;;;;;;;24.42;16.73;;;6.80;99.90;;;;;;5035736;28;20057;-78
2022/03/13 02:30:58;;;;;;;23.52;16.90;;;6.80;99.90;;;;;;5038227;28;20495;-75
2022/03/13 02:33:25;;;;;;;23.63;17.25;;;6.90;99.90;;;;;;5038618;28;20041;-75
2022/03/13 02:35:56;;;;;;;26.20;17.23;;;7.00;99.90;;;;;;5038538;28;20521;-76
2022/03/13 02:38:23;;;;;;;23.38;16.92;;;6.90;99.90;;;;;;5055648;28;20045;-75
2022/03/13 02:40:48;;;;;;;22.65;16.27;;;6.90;99.90;;;;;;5037650;28;20037;-75
2022/03/13 02:43:16;;;;;;;22.17;16.50;;;7.00;99.90;;;;;;5037898;28;20369;-77
2022/03/13 02:45:42;;;;;;;24.70;16.50;;;7.00;99.90;;;;;;5037983;28;20041;-74
2022/03/13 02:48:09;;;;;;;21.67;16.55;;;6.90;99.90;;;;;;5038052;28;20457;-75
2022/03/13 02:50:36;;;;;;;23.95;17.73;;;7.10;99.90;;;;;;5037887;28;20052;-74
2022/03/13 02:53:01;;;;;;;24.15;17.48;;;6.90;99.90;;;;;;5037954;28;20354;-75
2022/03/13 02:55:27;;;;;;;23.38;16.95;;;6.80;99.90;;;;;;5037838;28;20052;-74
2022/03/13 02:57:53;;;;;;;24.67;18.13;;;6.80;99.90;;;;;;5036620;28;20466;-75
2022/03/13 03:00:20;;;;;;;24.42;17.02;;;6.70;99.90;;;;;;5021161;28;20090;-75
2022/03/13 03:02:46;;;;;;;25.15;17.92;;;6.70;99.90;;;;;;5037368;28;20052;-75
2022/03/13 03:05:11;;;;;;;24.35;18.25;;;6.60;99.90;;;;;;5020951;28;20044;-75
2022/03/13 03:07:38;;;;;;;24.95;17.10;;;6.60;99.90;;;;;;5037599;28;20052;-78
2022/03/13 03:10:05;;;;;;;25.13;18.60;;;6.50;99.90;;;;;;5037506;28;20487;-76
2022/03/13 03:12:33;;;;;;;27.65;18.70;;;6.50;99.90;;;;;;5037776;28;20049;-75
2022/03/13 03:14:59;;;;;;;24.70;18.60;;;6.40;99.90;;;;;;5021097;28;20051;-76
2022/03/13 03:17:24;;;;;;;27.00;18.45;;;6.40;99.90;;;;;;5037255;28;20048;-76
2022/03/13 03:19:50;;;;;;;27.77;17.77;;;6.40;99.90;;;;;;5037368;28;20380;-77
2022/03/13 03:22:15;;;;;;;24.60;17.10;;;6.40;99.90;;;;;;5037466;28;20045;-74
2022/03/13 03:24:41;;;;;;;22.83;17.42;;;6.40;99.90;;;;;;5037481;28;20077;-74
2022/03/13 03:27:07;;;;;;;26.88;18.15;;;6.30;99.90;;;;;;5036627;28;20060;-75
2022/03/13 03:29:33;;;;;;;25.00;17.83;;;6.30;99.90;;;;;;5054677;28;20068;-77
2022/03/13 03:31:59;;;;;;;26.13;17.52;;;6.30;99.90;;;;;;5037361;28;20045;-75
2022/03/13 03:34:27;;;;;;;27.38;17.73;;;6.30;99.90;;;;;;5055051;28;20053;-75
2022/03/13 03:37:00;;;;;;;25.88;17.73;;;6.30;99.90;;;;;;5054868;28;20040;-76
2022/03/13 03:39:28;;;;;;;27.08;17.52;;;6.20;99.90;;;;;;5054333;28;20159;-77
2022/03/13 03:41:54;;;;;;;28.20;18.52;;;6.20;99.90;;;;;;5037089;28;20060;-76
2022/03/13 03:44:21;;;;;;;24.88;18.52;;;6.30;99.90;;;;;;5037290;28;20049;-77
2022/03/13 03:46:49;;;;;;;25.70;17.88;;;6.20;99.90;;;;;;5037650;28;20350;-76
2022/03/13 03:49:15;;;;;;;22.48;16.50;;;6.20;99.90;;;;;;5020637;28;20072;-76
2022/03/13 03:51:43;;;;;;;26.83;17.35;;;6.20;99.90;;;;;;5036916;28;20469;-77
2022/03/13 03:54:09;;;;;;;25.35;18.25;;;6.20;99.90;;;;;;5020241;28;20037;-75
2022/03/13 03:56:35;;;;;;;23.38;17.63;;;6.20;99.90;;;;;;5018217;28;20048;-76
2022/03/13 03:59:01;;;;;;;23.70;18.23;;;6.20;99.90;;;;;;5053114;28;20048;-76
2022/03/13 04:01:29;;;;;;;25.45;18.10;;;6.20;99.90;;;;;;5037258;28;20096;-74
2022/03/13 04:03:54;;;;;;;25.63;18.42;;;6.10;99.90;;;;;;5037506;28;20060;-77
2022/03/13 04:06:20;;;;;;;25.02;17.90;;;6.00;99.90;;;;;;5034638;28;20461;-75
2022/03/13 04:08:47;;;;;;;25.30;17.92;;;5.90;99.90;;;;;;5037048;28;20059;-74
2022/03/13 04:11:12;;;;;;;22.98;17.50;;;5.90;99.90;;;;;;5054204;28;20136;-75
2022/03/13 04:13:38;;;;;;;24.50;18.05;;;5.80;99.90;;;;;;5037384;28;20096;-74
2022/03/13 04:16:06;;;;;;;23.80;18.17;;;5.70;99.90;;;;;;5037072;28;20453;-77
2022/03/13 04:18:32;;;;;;;25.05;19.02;;;5.70;99.90;;;;;;5019944;28;20092;-76
2022/03/13 04:20:58;;;;;;;27.52;18.90;;;5.60;99.90;;;;;;5036389;28;20088;-74
2022/03/13 04:23:25;;;;;;;28.15;18.83;;;5.50;99.90;;;;;;5053448;28;20080;-75
2022/03/13 04:25:51;;;;;;;24.35;17.55;;;5.40;99.90;;;;;;5057570;28;20127;-75
2022/03/13 04:28:17;;;;;;;27.17;18.75;;;5.40;99.90;;;;;;5040061;28;20517;-76
2022/03/13 04:30:43;;;;;;;22.77;18.40;;;5.30;99.90;;;;;;5040574;28;20061;-77
2022/03/13 04:33:08;;;;;;;25.20;17.83;;;5.30;99.90;;;;;;5040858;28;20103;-77
2022/03/13 04:35:34;;;;;;;24.00;17.23;;;5.30;99.90;;;;;;5023672;28;20143;-76
2022/03/13 04:38:00;;;;;;;27.17;18.05;;;5.30;99.90;;;;;;5057766;28;20521;-76
2022/03/13 04:40:25;;;;;;;23.90;17.73;;;5.20;99.90;;;;;;5057915;28;20041;-74
2022/03/13 04:42:51;;;;;;;25.42;17.27;;;5.20;99.90;;;;;;5040111;28;20461;-77
2022/03/13 04:45:18;;;;;;;28.08;18.60;;;5.20;99.90;;;;;;5057921;28;20445;-77
2022/03/13 04:47:44;;;;;;;24.95;17.77;;;5.20;99.90;;;;;;5040179;28;20041;-75
2022/03/13 04:50:10;;;;;;;25.10;17.90;;;5.20;99.90;;;;;;5039771;28;20045;-75
2022/03/13 04:52:35;;;;;;;25.70;18.83;;;5.20;99.90;;;;;;5057346;28;20459;-75
2022/03/13 04:55:02;;;;;;;26.33;18.67;;;5.20;99.90;;;;;;5040051;28;20059;-77
2022/03/13 04:57:27;;;;;;;23.83;17.23;;;5.20;99.90;;;;;;5038779;28;20524;-76
2022/03/13 04:59:53;;;;;;;24.95;17.85;;;5.20;99.90;;;;;;5023685;28;20049;-75
2022/03/13 05:02:18;;;;;;;24.63;17.52;;;5.10;99.90;;;;;;5023649;28;20488;-74
2022/03/13 05:04:44;;;;;;;29.77;17.73;;;5.10;99.90;;;;;;5023517;28;20041;-75
2022/03/13 05:07:10;;;;;;;24.02;16.98;;;5.10;99.90;;;;;;5023151;28;20045;-75
2022/03/13 05:09:36;;;;;;;24.25;17.88;;;5.00;99.90;;;;;;5039917;28;20051;-76
2022/03/13 05:12:09;;;;;;;27.88;18.63;;;5.00;99.90;;;;;;5057197;28;20141;-76
2022/03/13 05:14:35;;;;;;;26.58;17.35;;;4.90;99.90;;;;;;5023267;28;20465;-75
2022/03/13 05:17:01;;;;;;;28.52;18.25;;;4.90;99.90;;;;;;5039744;28;20045;-75
2022/03/13 05:19:27;;;;;;;31.02;18.67;;;4.80;99.90;;;;;;5022914;28;20044;-76
2022/03/13 05:21:52;;;;;;;24.00;17.63;;;4.70;99.90;;;;;;5023132;28;20052;-75
2022/03/13 05:24:18;;;;;;;26.92;17.98;;;4.60;99.90;;;;;;5057156;28;20154;-75
2022/03/13 05:26:44;;;;;;;27.48;17.38;;;4.60;99.90;;;;;;5056579;28;20074;-74
2022/03/13 05:29:11;;;;;;;25.95;17.17;;;4.70;99.90;;;;;;5056999;28;20464;-74
2022/03/13 05:31:36;;;;;;;23.73;17.15;;;4.50;99.90;;;;;;5056951;28;20080;-75
2022/03/13 05:34:02;;;;;;;24.75;17.10;;;4.50;99.90;;;;;;5022901;28;20130;-74
2022/03/13 05:36:27;;;;;;;28.88;17.52;;;4.50;99.90;;;;;;5037996;28;20071;-76
2022/03/13 05:38:53;;;;;;;23.33;16.17;;;4.50;99.90;;;;;;5039189;28;20432;-74
2022/03/13 05:41:22;;;;;;;27.83;16.48;;;4.50;99.90;;;;;;5056838;28;20037;-74
2022/03/13 05:43:49;;;;;;;24.63;17.52;;;4.50;99.90;;;;;;5039364;28;20041;-75
2022/03/13 05:46:15;;;;;;;26.10;16.40;;;4.50;99.90;;;;;;5056659;28;20045;-75
2022/03/13 05:48:40;;;;;;;29.73;16.48;;;4.50;99.90;;;;;;5039074;28;20055;-74
2022/03/13 05:51:06;;;;;;;22.40;16.40;;;5.50;99.90;;;;;;5039095;28;20060;-76
2022/03/13 05:53:32;;;;;;;26.00;17.27;;;4.60;99.90;;;;;;5056245;28;20037;-75
2022/03/13 05:55:58;;;;;;;25.30;17.48;;;4.60;99.90;;;;;;5051409;28;20131;-74
2022/03/13 05:58:24;;;;;;;27.50;16.10;;;4.60;99.90;;;;;;5038450;28;20489;-75
2022/03/13 06:00:54;;;;;;;26.42;16.38;;;4.70;99.90;;;;;;5038542;28;20041;-73
2022/03/13 06:03:21;;;;;;;22.92;16.83;;;4.70;99.90;;;;;;5022176;28;20072;-76
2022/03/13 06:05:48;;;;;;;25.15;15.98;;;4.80;99.90;;;;;;5022177;28;20132;-74
2022/03/13 06:08:14;;;;;;;23.73;16.25;;;5.10;99.90;;;;;;5038840;28;20503;-75
2022/03/13 06:10:39;;;;;;;23.33;16.75;;;4.90;99.90;;;;;;5038771;28;20037;-75
2022/03/13 06:13:05;;;;;;;23.08;16.05;;;5.00;99.90;;;;;;5056139;28;20056;-75
2022/03/13 06:15:32;;;;;;;21.60;15.50;;;5.10;99.90;;;;;;5056295;28;20468;-74
2022/03/13 06:17:58;;;;;;;22.98;14.68;;;5.10;99.90;;;;;;5021842;28;20044;-74
2022/03/13 06:20:24;;;;;;;21.92;15.45;;;5.20;99.90;;;;;;5038773;28;20060;-75
2022/03/13 06:22:49;;;;;;;23.02;14.93;;;5.30;99.90;;;;;;5056104;28;20370;-75
2022/03/13 06:25:16;;;;;;;25.08;16.38;;;5.40;99.90;;;;;;5041673;28;20131;-74
2022/03/13 06:27:43;;;;;;;18.98;14.02;;;6.00;99.90;;;;;;5043843;28;20052;-70
2022/03/13 06:30:13;;;;;;;23.02;14.43;;;5.40;99.90;;;;;;5054895;28;20033;-73
2022/03/13 06:32:42;;;;;;;19.90;14.98;;;5.40;99.90;;;;;;5037789;28;20055;-74
2022/03/13 06:35:09;;;;;;;21.85;15.05;;;5.50;99.90;;;;;;5038048;28;20049;-75
2022/03/13 06:37:34;;;;;;;21.45;14.73;;;5.50;99.90;;;;;;5038065;28;20041;-75
2022/03/13 06:40:01;;;;;;;22.88;15.07;;;5.50;99.90;;;;;;5037773;28;20049;-75
2022/03/13 06:42:27;;;;;;;19.05;14.35;;;5.60;99.90;;;;;;5055085;28;20048;-75
2022/03/13 06:44:53;;;;;;;21.35;14.60;;;5.60;99.90;;;;;;5038246;28;20123;-75
2022/03/13 06:47:19;;;;;;;23.45;15.20;;;5.70;99.90;;;;;;5054976;28;20436;-75
2022/03/13 06:49:44;;;;;;;20.08;14.13;;;5.70;99.90;;;;;;5055115;28;20369;-76
2022/03/13 06:52:10;;;;;;;25.25;14.57;;;5.70;99.90;;;;;;5055533;28;20414;-75
2022/03/13 06:54:35;;;;;;;21.20;14.18;;;5.70;99.90;;;;;;5055165;28;20457;-75
2022/03/13 06:57:01;;;;;;;23.73;14.70;;;5.80;99.90;;;;;;5022548;28;20445;-76
2022/03/13 06:59:26;;;;;;;26.95;13.75;;;5.80;99.90;;;;;;5053692;28;20132;-76
2022/03/13 07:01:52;;;;;;;22.23;15.13;;;5.80;99.90;;;;;;5051515;28;20053;-73
2022/03/13 07:04:18;;;;;;;25.25;14.50;;;5.90;99.90;;;;;;5056042;28;20369;-75
2022/03/13 07:06:43;;;;;;;21.45;14.63;;;5.90;99.90;;;;;;5049805;28;20041;-74
2022/03/13 07:09:10;;;;;;;20.35;13.98;;;5.90;99.90;;;;;;5054290;28;20045;-77
2022/03/13 07:11:35;;;;;;;21.27;14.32;;;5.80;99.90;;;;;;5054373;28;20045;-76
2022/03/13 07:14:07;;;;;;;23.45;14.68;;;5.90;99.90;;;;;;5036058;28;20504;-75
2022/03/13 07:16:33;;;;;;;29.65;15.32;;;5.80;99.90;;;;;;5035954;28;20064;-75
2022/03/13 07:18:58;;;;;;;27.45;14.75;;;5.90;99.90;;;;;;5039086;28;20041;-76
2022/03/13 07:21:24;;;;;;;21.17;13.93;;;5.80;99.90;;;;;;5036576;28;20144;-71
2022/03/13 07:23:50;;;;;;;24.38;14.48;;;5.90;99.90;;;;;;5053333;28;20055;-73
2022/03/13 07:26:15;;;;;;;23.20;13.00;;;5.80;99.90;;;;;;5052710;28;20033;-78
2022/03/13 07:28:41;;;;;;;21.92;14.93;;;5.80;99.90;;;;;;5036538;28;20125;-73
2022/03/13 07:31:07;;;;;;;23.40;14.93;;;6.20;99.90;;;;;;5053729;28;20124;-75
2022/03/13 07:33:33;;;;;;;21.75;14.68;;;5.90;99.90;;;;;;5019778;28;20079;-73
2022/03/13 07:35:58;;;;;;;19.50;14.48;;;6.00;99.90;;;;;;5050789;28;20041;-75
2022/03/13 07:38:24;;;;;;;19.75;14.45;;;6.00;99.90;;;;;;5054090;28;20383;-74
2022/03/13 07:40:50;;;;;;;20.48;15.05;;;6.10;99.90;;;;;;5036632;28;20041;-74
2022/03/13 07:43:17;;;;;;;22.15;14.23;;;6.10;99.90;;;;;;5053872;28;20430;-75
2022/03/13 07:45:42;;;;;;;22.83;14.90;;;6.20;99.90;;;;;;5054019;28;20037;-77
2022/03/13 07:48:08;;;;;;;20.63;14.20;;;6.30;99.90;;;;;;5053732;28;20469;-75
2022/03/13 07:50:34;;;;;;;20.83;13.90;;;6.40;99.90;;;;;;5054091;28;20067;-75
2022/03/13 07:52:59;;;;;;;21.33;13.93;;;6.80;99.90;;;;;;5054123;28;20079;-73
2022/03/13 07:55:25;;;;;;;18.88;13.73;;;6.70;99.90;;;;;;5053947;28;20033;-73
2022/03/13 07:57:51;;;;;;;23.15;14.30;;;6.90;99.90;;;;;;5053894;28;20037;-74
2022/03/13 08:00:18;;;;;;;22.38;13.70;;;7.10;99.90;;;;;;5040145;28;20190;-75
2022/03/13 08:02:52;;;;;;;22.52;13.23;;;7.30;99.90;;;;;;5040444;28;20472;-74
2022/03/13 08:05:20;;;;;;;20.73;14.50;;;7.50;99.90;;;;;;5052752;28;20388;-74
2022/03/13 08:07:46;;;;;;;19.50;12.93;;;7.70;99.90;;;;;;5037789;28;20064;-73
2022/03/13 08:10:12;;;;;;;16.70;12.98;;;7.90;99.90;;;;;;5039827;28;20055;-74
2022/03/13 08:12:38;;;;;;;20.83;13.98;;;8.00;99.90;;;;;;5057921;28;20037;-75
2022/03/13 08:15:08;;;;;;;18.23;12.80;;;8.20;99.90;;;;;;5040390;28;20452;-76
2022/03/13 08:17:35;;;;;;;18.30;12.77;;;8.20;99.90;;;;;;5055309;28;20041;-75
2022/03/13 08:20:02;;;;;;;20.88;13.68;;;8.20;99.90;;;;;;5056149;28;20092;-76
2022/03/13 08:22:27;;;;;;;19.13;13.15;;;8.30;99.90;;;;;;5026444;28;20064;-75
2022/03/13 08:24:53;;;;;;;18.33;13.55;;;8.40;99.90;;;;;;5038944;28;20053;-75
2022/03/13 08:27:19;;;;;;;19.65;13.25;;;8.50;99.90;;;;;;5035909;28;20136;-74
2022/03/13 08:29:44;;;;;;;20.08;12.52;;;8.60;99.90;;;;;;5037826;28;20366;-75
2022/03/13 08:32:10;;;;;;;16.65;12.68;;;8.60;99.90;;;;;;5038034;28;20060;-74
2022/03/13 08:34:38;;;;;;;18.45;13.00;;;8.70;99.90;;;;;;5019523;28;20081;-73
2022/03/13 08:37:04;;;;;;;18.52;12.20;;;8.70;99.90;;;;;;5037426;28;20057;-74
2022/03/13 08:39:30;;;;;;;18.63;13.13;;;8.70;99.90;;;;;;5033184;28;20056;-76
2022/03/13 08:41:55;;;;;;;18.35;12.70;;;8.80;99.90;;;;;;5019717;28;20060;-76
2022/03/13 08:44:21;;;;;;;18.58;12.18;;;8.90;99.90;;;;;;5019796;28;20079;-74
2022/03/13 08:46:47;;;;;;;18.23;12.27;;;9.00;99.90;;;;;;5036714;28;20061;-75
2022/03/13 08:49:15;;;;;;;17.77;12.48;;;9.10;99.90;;;;;;5019955;28;20049;-74
2022/03/13 08:51:41;;;;;;;19.52;13.15;;;9.10;99.90;;;;;;5020531;28;20041;-74
2022/03/13 08:54:07;;;;;;;17.70;12.32;;;9.10;99.90;;;;;;5037685;28;20045;-73
2022/03/13 08:56:33;;;;;;;17.85;12.13;;;9.40;99.90;;;;;;5020093;28;20115;-74
2022/03/13 08:58:59;;;;;;;18.15;12.50;;;9.40;99.90;;;;;;5016871;28;20525;-75
2022/03/13 09:01:25;;;;;;;16.38;12.02;;;9.40;99.90;;;;;;5036894;28;20135;-74
2022/03/13 09:03:51;;;;;;;20.90;12.95;;;9.40;99.90;;;;;;5019509;28;20045;-74
2022/03/13 09:06:17;;;;;;;16.25;12.40;;;9.50;99.90;;;;;;5032781;28;20366;-75
2022/03/13 09:08:42;;;;;;;17.33;12.18;;;9.40;99.90;;;;;;5036729;28;20128;-75
2022/03/13 09:11:09;;;;;;;17.48;12.23;;;9.40;99.90;;;;;;5019673;28;20049;-74
2022/03/13 09:13:36;;;;;;;17.30;13.02;;;9.50;99.90;;;;;;5019888;28;20466;-75
2022/03/13 09:16:02;;;;;;;16.10;11.65;;;9.50;99.90;;;;;;5036788;28;20516;-76
2022/03/13 09:18:27;;;;;;;20.33;11.70;;;9.60;99.90;;;;;;5019640;28;20041;-75
2022/03/13 09:20:53;;;;;;;20.33;12.75;;;9.70;99.90;;;;;;5019243;28;20060;-73
2022/03/13 09:23:18;;;;;;;18.17;11.93;;;9.70;99.90;;;;;;5019515;28;20081;-74
2022/03/13 09:25:44;;;;;;;16.65;11.32;;;9.70;99.90;;;;;;5020120;28;20119;-75
2022/03/13 09:28:09;;;;;;;17.70;12.00;;;9.80;99.90;;;;;;5020360;28;20053;-73
2022/03/13 09:30:35;;;;;;;16.75;12.38;;;9.80;99.90;;;;;;5019438;28;20085;-74
2022/03/13 09:33:01;;;;;;;17.67;12.77;;;9.80;99.90;;;;;;5037189;28;20045;-74
2022/03/13 09:35:27;;;;;;;17.88;12.18;;;9.90;99.90;;;;;;5019009;28;20359;-75
2022/03/13 09:37:53;;;;;;;17.48;11.98;;;10.00;99.90;;;;;;5019092;28;20056;-72
2022/03/13 09:40:20;;;;;;;22.10;12.95;;;10.00;99.90;;;;;;5036866;28;20073;-74
2022/03/13 09:42:46;;;;;;;15.93;12.27;;;10.10;99.90;;;;;;5019109;28;20096;-76
2022/03/13 09:45:13;;;;;;;17.50;11.85;;;10.30;99.90;;;;;;5036739;28;20378;-76
2022/03/13 09:47:39;;;;;;;16.05;11.75;;;10.30;99.90;;;;;;5036611;28;20442;-75
2022/03/13 09:50:07;;;;;;;19.38;11.85;;;10.40;99.90;;;;;;5036848;28;20041;-73
2022/03/13 09:52:34;;;;;;;19.80;12.80;;;10.50;99.90;;;;;;5036196;28;20049;-74
2022/03/13 09:55:00;;;;;;;18.20;12.45;;;10.60;99.50;;;;;;5002399;28;20050;-74
2022/03/13 09:57:26;;;;;;;18.30;12.43;;;10.70;99.90;;;;;;5003455;28;20049;-74
2022/03/13 09:59:51;;;;;;;17.23;12.07;;;10.80;99.90;;;;;;5036757;28;20053;-72
2022/03/13 10:02:17;;;;;;;17.33;12.98;;;10.90;97.90;;;;;;5019068;28;20075;-73
2022/03/13 10:04:43;;;;;;;18.55;12.75;;;10.90;99.90;;;;;;5035947;28;20426;-72
2022/03/13 10:07:11;;;;;;;18.08;12.43;;;11.00;99.50;;;;;;5035847;28;20132;-72
2022/03/13 10:09:40;;;;;;;18.63;12.20;;;11.10;96.80;;;;;;5019162;28;20521;-73
2022/03/13 10:12:10;;;;;;;19.20;11.65;;;11.20;96.60;;;;;;5036416;28;20100;-74
2022/03/13 10:14:39;;;;;;;17.50;11.38;;;11.30;97.30;;;;;;5018907;28;20050;-75
2022/03/13 10:17:13;;;;;;;24.02;13.07;;;11.30;98.70;;;;;;5036052;28;20052;-73
2022/03/13 10:19:39;;;;;;;18.33;13.13;;;11.40;98.30;;;;;;5020101;28;20053;-73
2022/03/13 10:22:07;;;;;;;18.90;12.15;;;11.50;99.50;;;;;;5054898;28;20064;-70
2022/03/13 10:24:46;;;;;;;20.90;11.48;;;11.50;96.90;;;;;;5038620;28;20055;-75
2022/03/13 10:27:20;;;;;;;17.85;12.80;;;11.60;97.70;;;;;;5038476;28;20057;-73
2022/03/13 10:29:47;;;;;;;18.08;12.65;;;11.70;97.90;;;;;;5055905;28;20053;-71
2022/03/13 10:32:17;;;;;;;19.58;12.73;;;11.90;96.90;;;;;;5056157;28;20331;-72
2022/03/13 10:34:56;;;;;;;16.35;11.57;;;12.00;96.40;;;;;;5038018;28;20471;-73
2022/03/13 10:37:37;;;;;;;16.83;12.25;;;12.20;97.10;;;;;;5053542;28;20374;-69
2022/03/13 10:40:14;;;;;;;17.95;12.73;;;12.30;95.60;;;;;;5037744;28;20136;-73
2022/03/13 10:42:53;;;;;;;17.70;11.68;;;12.40;96.80;;;;;;5037858;28;20419;-76
2022/03/13 10:45:36;;;;;;;17.50;12.35;;;12.40;96.90;;;;;;5041670;28;20083;-72
2022/03/13 10:48:17;;;;;;;18.63;12.10;;;12.60;95.00;;;;;;5050017;28;20045;-74
2022/03/13 10:50:47;;;;;;;16.48;11.80;;;12.70;93.70;;;;;;5034026;28;20044;-73
2022/03/13 10:53:13;;;;;;;17.85;12.30;;;12.80;91.60;;;;;;5060279;28;20339;-73
2022/03/13 10:55:41;;;;;;;18.42;12.55;;;12.80;93.80;;;;;;5054189;28;20040;-72
2022/03/13 10:58:07;;;;;;;17.13;12.27;;;12.90;92.50;;;;;;5023126;28;20041;-73
2022/03/13 11:00:34;;;;;;;19.55;12.52;;;12.90;93.40;;;;;;5037544;28;20049;-72
2022/03/13 11:03:11;;;;;;;20.48;13.13;;;12.90;94.10;;;;;;5021150;28;20044;-73
2022/03/13 11:05:37;;;;;;;17.23;12.43;;;13.00;93.40;;;;;;5036916;28;20051;-73
2022/03/13 11:08:04;;;;;;;18.48;13.10;;;13.00;93.50;;;;;;5052944;28;20457;-74
2022/03/13 11:10:30;;;;;;;18.70;13.43;;;13.10;89.90;;;;;;5072315;28;20037;-72
2022/03/13 11:12:57;;;;;;;19.50;13.13;;;13.20;92.10;;;;;;5037432;28;20033;-74
2022/03/13 11:15:27;;;;;;;18.75;11.93;;;13.30;92.10;;;;;;5021411;28;20052;-73
2022/03/13 11:17:55;;;;;;;19.75;12.23;;;13.40;92.80;;;;;;5054367;28;20525;-76
2022/03/13 11:20:22;;;;;;;17.02;12.13;;;13.60;92.40;;;;;;5054411;28;20207;-74
2022/03/13 11:22:48;;;;;;;16.77;12.00;;;13.70;88.90;;;;;;5058806;28;20366;-72
2022/03/13 11:25:13;;;;;;;16.88;12.20;;;13.70;90.50;;;;;;5057784;28;20055;-72
2022/03/13 11:27:42;;;;;;;22.30;13.35;;;13.80;91.10;;;;;;5075098;28;20043;-72
2022/03/13 11:30:12;;;;;;;20.15;12.68;;;13.90;86.50;;;;;;5074429;28;20075;-71
2022/03/13 11:32:40;;;;;;;19.25;12.63;;;13.90;85.40;;;;;;5074650;28;20055;-72
2022/03/13 11:35:14;;;;;;;16.88;12.80;;;14.00;85.10;;;;;;5074319;28;20062;-73
2022/03/13 11:37:45;;;;;;;19.45;13.10;;;14.10;83.50;;;;;;5051144;28;20044;-73
2022/03/13 11:40:13;;;;;;;18.92;12.45;;;14.20;83.50;;;;;;5052084;28;20071;-72
2022/03/13 11:42:47;;;;;;;19.48;13.23;;;14.20;80.70;;;;;;5053453;28;20080;-72
2022/03/13 11:45:32;;;;;;;19.25;12.50;;;14.30;82.00;;;;;;5051727;28;20072;-75
2022/03/13 11:48:19;;;;;;;17.42;12.80;;;14.40;80.20;;;;;;5054339;28;20076;-75
2022/03/13 11:50:54;;;;;;;22.70;13.57;;;14.40;75.00;;;;;;5036947;28;20045;-73
2022/03/13 11:53:22;;;;;;;19.95;11.90;;;14.40;76.20;;;;;;5037210;28;20052;-73
2022/03/13 11:55:59;;;;;;;18.95;12.70;;;14.60;76.80;;;;;;5054333;28;20460;-73
2022/03/13 11:58:45;;;;;;;18.85;11.75;;;14.70;78.70;;;;;;5036474;28;20055;-74
2022/03/13 12:01:33;;;;;;;17.48;10.82;;;14.80;76.80;;;;;;5036598;28;20049;-76
2022/03/13 12:04:04;;;;;;;17.08;11.35;;;14.80;74.20;;;;;;5036809;28;20075;-74
2022/03/13 12:06:50;;;;;;;15.75;11.63;;;14.70;72.30;;;;;;5036945;28;20532;-75
2022/03/13 12:09:17;;;;;;;21.05;10.88;;;14.80;75.80;;;;;;5036790;28;20045;-74
2022/03/13 12:11:47;;;;;;;16.65;11.82;;;14.90;78.50;;;;;;5036773;28;20049;-73
2022/03/13 12:14:18;;;;;;;17.55;11.82;;;15.00;71.70;;;;;;5036910;28;20134;-73
2022/03/13 12:16:45;;;;;;;19.17;12.52;;;15.10;71.60;;;;;;5054390;28;20111;-73
2022/03/13 12:19:12;;;;;;;17.10;11.75;;;15.00;71.30;;;;;;5036785;28;20071;-74
2022/03/13 12:21:44;;;;;;;17.67;11.27;;;15.10;72.60;;;;;;5054352;28;20088;-73
2022/03/13 12:24:15;;;;;;;16.70;11.20;;;15.20;71.80;;;;;;5041989;28;20480;-75
2022/03/13 12:26:44;;;;;;;17.63;10.90;;;15.10;70.00;;;;;;5043339;28;20053;-76
2022/03/13 12:29:18;;;;;;;19.63;12.45;;;15.30;73.30;;;;;;5034763;28;20041;-74
2022/03/13 12:31:48;;;;;;;16.50;11.45;;;15.20;68.50;;;;;;5035701;28;20063;-77
2022/03/13 12:34:27;;;;;;;16.27;12.38;;;15.10;70.70;;;;;;5038953;28;20049;-75
2022/03/13 12:36:58;;;;;;;19.30;12.25;;;15.10;68.90;;;;;;5039514;28;20053;-75